sensor_id;sensor_type;location;lat;lon;timestamp;P1;durP1;ratioP1;P2;durP2;ratioP2
11473;SDS011;5793;52.238;13.438;2023-04-16T00:01:38;9.87;;;8.83;;
11473;SDS011;5793;52.238;13.438;2023-04-16T00:04:06;9.77;;;8.70;;
11473;SDS011;5793;52.238;13.438;2023-04-16T00:06:34;10.20;;;8.43;;
11473;SDS011;5793;52.238;13.438;2023-04-16T00:09:02;10.03;;;9.03;;
11473;SDS011;5793;52.238;13.438;2023-04-16T00:11:30;10.13;;;8.53;;
11473;SDS011;5793;52.238;13.438;2023-04-16T00:13:57;10.10;;;8.80;;
11473;SDS011;5793;52.238;13.438;2023-04-16T00:16:26;12.13;;;10.30;;
11473;SDS011;5793;52.238;13.438;2023-04-16T00:18:55;10.73;;;9.63;;
11473;SDS011;5793;52.238;13.438;2023-04-16T00:21:23;10.53;;;9.43;;
11473;SDS011;5793;52.238;13.438;2023-04-16T00:23:52;10.47;;;9.47;;
11473;SDS011;5793;52.238;13.438;2023-04-16T00:26:20;11.57;;;10.37;;
11473;SDS011;5793;52.238;13.438;2023-04-16T00:28:47;10.13;;;9.13;;
11473;SDS011;5793;52.238;13.438;2023-04-16T00:31:15;10.93;;;9.77;;
11473;SDS011;5793;52.238;13.438;2023-04-16T00:33:43;10.40;;;9.30;;
11473;SDS011;5793;52.238;13.438;2023-04-16T00:36:12;11.40;;;9.07;;
11473;SDS011;5793;52.238;13.438;2023-04-16T00:38:40;10.90;;;9.63;;
11473;SDS011;5793;52.238;13.438;2023-04-16T00:41:07;12.13;;;10.10;;
11473;SDS011;5793;52.238;13.438;2023-04-16T00:43:35;13.23;;;11.53;;
11473;SDS011;5793;52.238;13.438;2023-04-16T00:46:03;13.03;;;10.70;;
11473;SDS011;5793;52.238;13.438;2023-04-16T00:48:32;14.30;;;11.90;;
11473;SDS011;5793;52.238;13.438;2023-04-16T00:51:01;13.07;;;10.60;;
11473;SDS011;5793;52.238;13.438;2023-04-16T00:53:32;13.07;;;11.63;;
11473;SDS011;5793;52.238;13.438;2023-04-16T00:56:00;12.50;;;11.13;;
11473;SDS011;5793;52.238;13.438;2023-04-16T00:58:29;13.60;;;12.03;;
11473;SDS011;5793;52.238;13.438;2023-04-16T01:00:57;12.20;;;10.90;;
11473;SDS011;5793;52.238;13.438;2023-04-16T01:03:27;16.93;;;12.33;;
11473;SDS011;5793;52.238;13.438;2023-04-16T01:06:01;12.80;;;11.10;;
11473;SDS011;5793;52.238;13.438;2023-04-16T01:08:29;23.47;;;13.13;;
11473;SDS011;5793;52.238;13.438;2023-04-16T01:10:58;13.33;;;11.93;;
11473;SDS011;5793;52.238;13.438;2023-04-16T01:13:26;16.73;;;12.47;;
11473;SDS011;5793;52.238;13.438;2023-04-16T01:15:53;15.93;;;13.37;;
11473;SDS011;5793;52.238;13.438;2023-04-16T01:18:22;14.90;;;13.27;;
11473;SDS011;5793;52.238;13.438;2023-04-16T01:20:51;17.53;;;13.63;;
11473;SDS011;5793;52.238;13.438;2023-04-16T01:23:19;15.33;;;13.67;;
11473;SDS011;5793;52.238;13.438;2023-04-16T01:25:47;19.67;;;13.63;;
11473;SDS011;5793;52.238;13.438;2023-04-16T01:28:15;13.77;;;12.20;;
11473;SDS011;5793;52.238;13.438;2023-04-16T01:30:43;13.63;;;12.20;;
11473;SDS011;5793;52.238;13.438;2023-04-16T01:33:11;13.13;;;11.83;;
11473;SDS011;5793;52.238;13.438;2023-04-16T01:35:55;13.17;;;11.77;;
11473;SDS011;5793;52.238;13.438;2023-04-16T01:38:22;13.77;;;12.07;;
11473;SDS011;5793;52.238;13.438;2023-04-16T01:40:54;18.30;;;14.00;;
11473;SDS011;5793;52.238;13.438;2023-04-16T01:43:22;14.03;;;11.90;;
11473;SDS011;5793;52.238;13.438;2023-04-16T01:45:50;16.97;;;13.70;;
11473;SDS011;5793;52.238;13.438;2023-04-16T01:48:19;21.10;;;14.23;;
11473;SDS011;5793;52.238;13.438;2023-04-16T01:50:47;16.40;;;13.93;;
11473;SDS011;5793;52.238;13.438;2023-04-16T01:53:16;17.87;;;13.87;;
11473;SDS011;5793;52.238;13.438;2023-04-16T01:55:44;15.27;;;13.63;;
11473;SDS011;5793;52.238;13.438;2023-04-16T01:58:12;17.83;;;13.83;;
11473;SDS011;5793;52.238;13.438;2023-04-16T02:00:40;14.33;;;12.70;;
11473;SDS011;5793;52.238;13.438;2023-04-16T02:03:08;15.67;;;12.87;;
11473;SDS011;5793;52.238;13.438;2023-04-16T02:05:36;15.50;;;12.97;;
11473;SDS011;5793;52.238;13.438;2023-04-16T02:08:04;15.93;;;13.10;;
11473;SDS011;5793;52.238;13.438;2023-04-16T02:10:33;18.17;;;14.13;;
11473;SDS011;5793;52.238;13.438;2023-04-16T02:13:01;17.30;;;13.67;;
11473;SDS011;5793;52.238;13.438;2023-04-16T02:15:29;16.47;;;14.00;;
11473;SDS011;5793;52.238;13.438;2023-04-16T02:17:56;17.80;;;14.43;;
11473;SDS011;5793;52.238;13.438;2023-04-16T02:20:24;18.13;;;14.97;;
11473;SDS011;5793;52.238;13.438;2023-04-16T02:22:52;18.60;;;14.53;;
11473;SDS011;5793;52.238;13.438;2023-04-16T02:25:20;18.30;;;14.50;;
11473;SDS011;5793;52.238;13.438;2023-04-16T02:27:49;18.00;;;14.03;;
11473;SDS011;5793;52.238;13.438;2023-04-16T02:30:17;14.43;;;12.40;;
11473;SDS011;5793;52.238;13.438;2023-04-16T02:32:45;17.00;;;13.57;;
11473;SDS011;5793;52.238;13.438;2023-04-16T02:35:13;17.20;;;14.20;;
11473;SDS011;5793;52.238;13.438;2023-04-16T02:37:40;17.43;;;14.93;;
11473;SDS011;5793;52.238;13.438;2023-04-16T02:40:09;19.67;;;15.67;;
11473;SDS011;5793;52.238;13.438;2023-04-16T02:42:37;19.03;;;16.33;;
11473;SDS011;5793;52.238;13.438;2023-04-16T02:45:07;19.83;;;15.83;;
11473;SDS011;5793;52.238;13.438;2023-04-16T02:47:36;18.80;;;15.97;;
11473;SDS011;5793;52.238;13.438;2023-04-16T02:50:04;23.50;;;19.07;;
11473;SDS011;5793;52.238;13.438;2023-04-16T02:52:33;22.63;;;16.83;;
11473;SDS011;5793;52.238;13.438;2023-04-16T02:55:01;21.27;;;16.70;;
11473;SDS011;5793;52.238;13.438;2023-04-16T02:57:29;27.00;;;19.47;;
11473;SDS011;5793;52.238;13.438;2023-04-16T02:59:57;22.37;;;18.27;;
11473;SDS011;5793;52.238;13.438;2023-04-16T03:02:26;22.77;;;19.43;;
11473;SDS011;5793;52.238;13.438;2023-04-16T03:04:54;25.77;;;20.40;;
11473;SDS011;5793;52.238;13.438;2023-04-16T03:07:21;26.67;;;20.67;;
11473;SDS011;5793;52.238;13.438;2023-04-16T03:09:49;27.70;;;21.60;;
11473;SDS011;5793;52.238;13.438;2023-04-16T03:12:17;26.20;;;21.37;;
11473;SDS011;5793;52.238;13.438;2023-04-16T03:14:45;28.33;;;21.80;;
11473;SDS011;5793;52.238;13.438;2023-04-16T03:17:13;25.80;;;21.00;;
11473;SDS011;5793;52.238;13.438;2023-04-16T03:19:42;26.27;;;19.73;;
11473;SDS011;5793;52.238;13.438;2023-04-16T03:22:10;28.10;;;21.20;;
11473;SDS011;5793;52.238;13.438;2023-04-16T03:24:37;27.17;;;20.70;;
11473;SDS011;5793;52.238;13.438;2023-04-16T03:27:05;28.20;;;20.87;;
11473;SDS011;5793;52.238;13.438;2023-04-16T03:29:35;28.43;;;21.67;;
11473;SDS011;5793;52.238;13.438;2023-04-16T03:32:02;30.20;;;21.37;;
11473;SDS011;5793;52.238;13.438;2023-04-16T03:34:30;28.83;;;20.67;;
11473;SDS011;5793;52.238;13.438;2023-04-16T03:36:59;27.93;;;20.47;;
11473;SDS011;5793;52.238;13.438;2023-04-16T03:39:27;28.33;;;21.90;;
11473;SDS011;5793;52.238;13.438;2023-04-16T03:41:55;27.50;;;22.67;;
11473;SDS011;5793;52.238;13.438;2023-04-16T03:44:23;31.80;;;22.63;;
11473;SDS011;5793;52.238;13.438;2023-04-16T03:46:50;28.90;;;23.10;;
11473;SDS011;5793;52.238;13.438;2023-04-16T03:49:18;32.40;;;23.43;;
11473;SDS011;5793;52.238;13.438;2023-04-16T03:51:46;27.00;;;22.30;;
11473;SDS011;5793;52.238;13.438;2023-04-16T03:54:15;30.83;;;23.67;;
11473;SDS011;5793;52.238;13.438;2023-04-16T03:56:45;29.73;;;23.17;;
11473;SDS011;5793;52.238;13.438;2023-04-16T03:59:13;32.37;;;22.93;;
11473;SDS011;5793;52.238;13.438;2023-04-16T04:01:41;31.23;;;22.50;;
11473;SDS011;5793;52.238;13.438;2023-04-16T04:04:09;31.67;;;23.23;;
11473;SDS011;5793;52.238;13.438;2023-04-16T04:06:37;29.37;;;22.80;;
11473;SDS011;5793;52.238;13.438;2023-04-16T04:09:05;31.10;;;21.50;;
11473;SDS011;5793;52.238;13.438;2023-04-16T04:11:34;29.57;;;22.67;;
11473;SDS011;5793;52.238;13.438;2023-04-16T04:14:02;29.13;;;23.07;;
11473;SDS011;5793;52.238;13.438;2023-04-16T04:16:31;26.50;;;21.67;;
11473;SDS011;5793;52.238;13.438;2023-04-16T04:18:59;28.33;;;21.70;;
11473;SDS011;5793;52.238;13.438;2023-04-16T04:21:27;29.10;;;21.93;;
11473;SDS011;5793;52.238;13.438;2023-04-16T04:23:55;29.23;;;21.60;;
11473;SDS011;5793;52.238;13.438;2023-04-16T04:26:22;27.57;;;21.80;;
11473;SDS011;5793;52.238;13.438;2023-04-16T04:28:52;27.60;;;21.87;;
11473;SDS011;5793;52.238;13.438;2023-04-16T04:31:19;29.57;;;22.77;;
11473;SDS011;5793;52.238;13.438;2023-04-16T04:33:47;30.23;;;23.83;;
11473;SDS011;5793;52.238;13.438;2023-04-16T04:36:15;29.80;;;23.70;;
11473;SDS011;5793;52.238;13.438;2023-04-16T04:38:43;32.17;;;23.33;;
11473;SDS011;5793;52.238;13.438;2023-04-16T04:41:11;30.87;;;24.17;;
11473;SDS011;5793;52.238;13.438;2023-04-16T04:43:39;34.13;;;25.20;;
11473;SDS011;5793;52.238;13.438;2023-04-16T04:46:08;31.73;;;24.87;;
11473;SDS011;5793;52.238;13.438;2023-04-16T04:48:36;34.70;;;25.43;;
11473;SDS011;5793;52.238;13.438;2023-04-16T04:51:03;31.40;;;24.70;;
11473;SDS011;5793;52.238;13.438;2023-04-16T04:53:31;34.00;;;25.53;;
11473;SDS011;5793;52.238;13.438;2023-04-16T04:55:59;36.27;;;26.50;;
11473;SDS011;5793;52.238;13.438;2023-04-16T04:58:37;34.10;;;27.43;;
11473;SDS011;5793;52.238;13.438;2023-04-16T05:01:05;36.73;;;26.37;;
11473;SDS011;5793;52.238;13.438;2023-04-16T05:03:34;37.57;;;26.57;;
11473;SDS011;5793;52.238;13.438;2023-04-16T05:06:03;35.43;;;27.00;;
11473;SDS011;5793;52.238;13.438;2023-04-16T05:08:31;36.87;;;28.00;;
11473;SDS011;5793;52.238;13.438;2023-04-16T05:10:59;38.60;;;28.37;;
11473;SDS011;5793;52.238;13.438;2023-04-16T05:13:26;40.83;;;29.87;;
11473;SDS011;5793;52.238;13.438;2023-04-16T05:15:54;36.33;;;28.47;;
11473;SDS011;5793;52.238;13.438;2023-04-16T05:18:23;37.37;;;28.23;;
11473;SDS011;5793;52.238;13.438;2023-04-16T05:20:51;38.70;;;28.33;;
11473;SDS011;5793;52.238;13.438;2023-04-16T05:23:19;42.30;;;28.87;;
11473;SDS011;5793;52.238;13.438;2023-04-16T05:25:47;40.40;;;28.73;;
11473;SDS011;5793;52.238;13.438;2023-04-16T05:28:15;38.00;;;28.53;;
11473;SDS011;5793;52.238;13.438;2023-04-16T05:30:43;35.80;;;27.90;;
11473;SDS011;5793;52.238;13.438;2023-04-16T05:33:10;38.70;;;28.93;;
11473;SDS011;5793;52.238;13.438;2023-04-16T05:35:40;41.87;;;29.17;;
11473;SDS011;5793;52.238;13.438;2023-04-16T05:38:07;39.23;;;28.30;;
11473;SDS011;5793;52.238;13.438;2023-04-16T05:40:35;42.90;;;30.57;;
11473;SDS011;5793;52.238;13.438;2023-04-16T05:43:03;41.67;;;29.80;;
11473;SDS011;5793;52.238;13.438;2023-04-16T05:45:31;41.83;;;29.37;;
11473;SDS011;5793;52.238;13.438;2023-04-16T05:48:04;45.70;;;30.83;;
11473;SDS011;5793;52.238;13.438;2023-04-16T05:50:33;42.83;;;30.20;;
11473;SDS011;5793;52.238;13.438;2023-04-16T05:53:03;42.20;;;30.40;;
11473;SDS011;5793;52.238;13.438;2023-04-16T05:55:33;36.20;;;28.20;;
11473;SDS011;5793;52.238;13.438;2023-04-16T05:58:02;40.93;;;28.33;;
11473;SDS011;5793;52.238;13.438;2023-04-16T06:00:30;40.53;;;29.00;;
11473;SDS011;5793;52.238;13.438;2023-04-16T06:02:58;40.93;;;28.50;;
11473;SDS011;5793;52.238;13.438;2023-04-16T06:05:26;35.17;;;26.67;;
11473;SDS011;5793;52.238;13.438;2023-04-16T06:07:55;37.57;;;27.50;;
11473;SDS011;5793;52.238;13.438;2023-04-16T06:10:24;35.40;;;27.27;;
11473;SDS011;5793;52.238;13.438;2023-04-16T06:12:51;32.77;;;25.10;;
11473;SDS011;5793;52.238;13.438;2023-04-16T06:15:19;32.93;;;25.87;;
11473;SDS011;5793;52.238;13.438;2023-04-16T06:17:47;31.57;;;25.27;;
11473;SDS011;5793;52.238;13.438;2023-04-16T06:20:15;33.50;;;26.07;;
11473;SDS011;5793;52.238;13.438;2023-04-16T06:22:43;33.13;;;24.37;;
11473;SDS011;5793;52.238;13.438;2023-04-16T06:25:11;28.93;;;22.87;;
11473;SDS011;5793;52.238;13.438;2023-04-16T06:27:43;27.07;;;21.20;;
11473;SDS011;5793;52.238;13.438;2023-04-16T06:30:11;34.17;;;23.93;;
11473;SDS011;5793;52.238;13.438;2023-04-16T06:32:39;26.63;;;22.37;;
11473;SDS011;5793;52.238;13.438;2023-04-16T06:35:08;28.47;;;22.00;;
11473;SDS011;5793;52.238;13.438;2023-04-16T06:37:36;26.97;;;21.73;;
11473;SDS011;5793;52.238;13.438;2023-04-16T06:40:04;26.33;;;20.70;;
11473;SDS011;5793;52.238;13.438;2023-04-16T06:42:33;27.90;;;21.83;;
11473;SDS011;5793;52.238;13.438;2023-04-16T06:45:02;30.57;;;21.27;;
11473;SDS011;5793;52.238;13.438;2023-04-16T06:47:30;25.70;;;21.83;;
11473;SDS011;5793;52.238;13.438;2023-04-16T06:49:58;29.50;;;22.23;;
11473;SDS011;5793;52.238;13.438;2023-04-16T06:52:26;29.07;;;23.43;;
11473;SDS011;5793;52.238;13.438;2023-04-16T06:54:55;31.90;;;22.83;;
11473;SDS011;5793;52.238;13.438;2023-04-16T06:57:22;31.23;;;22.33;;
11473;SDS011;5793;52.238;13.438;2023-04-16T06:59:50;35.23;;;24.07;;
11473;SDS011;5793;52.238;13.438;2023-04-16T07:02:19;33.13;;;23.77;;
11473;SDS011;5793;52.238;13.438;2023-04-16T07:04:47;30.47;;;22.30;;
11473;SDS011;5793;52.238;13.438;2023-04-16T07:07:17;31.90;;;23.03;;
11473;SDS011;5793;52.238;13.438;2023-04-16T07:09:45;37.53;;;24.30;;
11473;SDS011;5793;52.238;13.438;2023-04-16T07:12:13;33.50;;;24.33;;
11473;SDS011;5793;52.238;13.438;2023-04-16T07:14:41;31.23;;;22.80;;
11473;SDS011;5793;52.238;13.438;2023-04-16T07:17:09;28.97;;;21.60;;
11473;SDS011;5793;52.238;13.438;2023-04-16T07:19:38;30.47;;;22.70;;
11473;SDS011;5793;52.238;13.438;2023-04-16T07:22:06;27.30;;;21.07;;
11473;SDS011;5793;52.238;13.438;2023-04-16T07:24:34;28.27;;;22.60;;
11473;SDS011;5793;52.238;13.438;2023-04-16T07:27:01;30.43;;;21.50;;
11473;SDS011;5793;52.238;13.438;2023-04-16T07:29:29;27.60;;;21.57;;
11473;SDS011;5793;52.238;13.438;2023-04-16T07:31:57;28.50;;;21.47;;
11473;SDS011;5793;52.238;13.438;2023-04-16T07:34:25;30.57;;;21.30;;
11473;SDS011;5793;52.238;13.438;2023-04-16T07:36:54;27.70;;;20.77;;
11473;SDS011;5793;52.238;13.438;2023-04-16T07:39:22;28.93;;;20.07;;
11473;SDS011;5793;52.238;13.438;2023-04-16T07:41:50;25.07;;;19.97;;
11473;SDS011;5793;52.238;13.438;2023-04-16T07:44:17;29.43;;;20.03;;
11473;SDS011;5793;52.238;13.438;2023-04-16T07:46:45;26.83;;;20.60;;
11473;SDS011;5793;52.238;13.438;2023-04-16T07:49:13;27.83;;;20.87;;
11473;SDS011;5793;52.238;13.438;2023-04-16T07:51:41;29.00;;;21.00;;
11473;SDS011;5793;52.238;13.438;2023-04-16T07:54:10;25.73;;;19.87;;
11473;SDS011;5793;52.238;13.438;2023-04-16T07:56:38;28.80;;;20.10;;
11473;SDS011;5793;52.238;13.438;2023-04-16T07:59:06;24.70;;;18.17;;
11473;SDS011;5793;52.238;13.438;2023-04-16T08:01:39;23.87;;;18.87;;
11473;SDS011;5793;52.238;13.438;2023-04-16T08:04:07;23.47;;;17.93;;
11473;SDS011;5793;52.238;13.438;2023-04-16T08:06:35;22.30;;;17.87;;
11473;SDS011;5793;52.238;13.438;2023-04-16T08:09:03;25.47;;;18.53;;
11473;SDS011;5793;52.238;13.438;2023-04-16T08:11:32;27.70;;;18.80;;
11473;SDS011;5793;52.238;13.438;2023-04-16T08:14:00;24.57;;;18.90;;
11473;SDS011;5793;52.238;13.438;2023-04-16T08:16:28;26.17;;;19.50;;
11473;SDS011;5793;52.238;13.438;2023-04-16T08:18:56;25.27;;;19.43;;
11473;SDS011;5793;52.238;13.438;2023-04-16T08:21:26;25.23;;;19.13;;
11473;SDS011;5793;52.238;13.438;2023-04-16T08:23:54;26.77;;;18.87;;
11473;SDS011;5793;52.238;13.438;2023-04-16T08:26:22;20.87;;;16.47;;
11473;SDS011;5793;52.238;13.438;2023-04-16T08:28:51;21.17;;;16.47;;
11473;SDS011;5793;52.238;13.438;2023-04-16T08:31:19;21.30;;;17.40;;
11473;SDS011;5793;52.238;13.438;2023-04-16T08:33:47;22.43;;;17.73;;
11473;SDS011;5793;52.238;13.438;2023-04-16T08:36:15;21.23;;;15.97;;
11473;SDS011;5793;52.238;13.438;2023-04-16T08:38:43;22.43;;;16.43;;
11473;SDS011;5793;52.238;13.438;2023-04-16T08:41:11;22.17;;;16.30;;
11473;SDS011;5793;52.238;13.438;2023-04-16T08:43:42;23.83;;;18.63;;
11473;SDS011;5793;52.238;13.438;2023-04-16T08:46:12;23.17;;;17.87;;
11473;SDS011;5793;52.238;13.438;2023-04-16T08:48:42;23.30;;;18.53;;
11473;SDS011;5793;52.238;13.438;2023-04-16T08:51:15;24.07;;;18.97;;
11473;SDS011;5793;52.238;13.438;2023-04-16T08:53:47;23.23;;;18.37;;
11473;SDS011;5793;52.238;13.438;2023-04-16T08:56:19;22.67;;;18.77;;
11473;SDS011;5793;52.238;13.438;2023-04-16T08:58:49;22.73;;;18.17;;
11473;SDS011;5793;52.238;13.438;2023-04-16T09:01:21;22.07;;;16.90;;
11473;SDS011;5793;52.238;13.438;2023-04-16T09:03:51;22.27;;;17.30;;
11473;SDS011;5793;52.238;13.438;2023-04-16T09:06:20;19.77;;;16.93;;
11473;SDS011;5793;52.238;13.438;2023-04-16T09:08:48;22.03;;;16.97;;
11473;SDS011;5793;52.238;13.438;2023-04-16T09:11:16;22.43;;;17.47;;
11473;SDS011;5793;52.238;13.438;2023-04-16T09:13:45;21.10;;;17.20;;
11473;SDS011;5793;52.238;13.438;2023-04-16T09:16:13;17.40;;;15.10;;
11473;SDS011;5793;52.238;13.438;2023-04-16T09:18:42;20.27;;;15.57;;
11473;SDS011;5793;52.238;13.438;2023-04-16T09:21:13;18.30;;;15.17;;
11473;SDS011;5793;52.238;13.438;2023-04-16T09:23:41;20.10;;;15.87;;
11473;SDS011;5793;52.238;13.438;2023-04-16T09:26:10;18.83;;;15.30;;
11473;SDS011;5793;52.238;13.438;2023-04-16T09:28:38;23.17;;;17.80;;
11473;SDS011;5793;52.238;13.438;2023-04-16T09:31:07;23.83;;;18.30;;
11473;SDS011;5793;52.238;13.438;2023-04-16T09:33:35;21.93;;;17.53;;
11473;SDS011;5793;52.238;13.438;2023-04-16T09:36:05;26.00;;;19.50;;
11473;SDS011;5793;52.238;13.438;2023-04-16T09:38:45;25.93;;;18.77;;
11473;SDS011;5793;52.238;13.438;2023-04-16T09:41:14;25.00;;;17.93;;
11473;SDS011;5793;52.238;13.438;2023-04-16T09:43:52;26.37;;;18.93;;
11473;SDS011;5793;52.238;13.438;2023-04-16T09:46:23;25.53;;;18.70;;
11473;SDS011;5793;52.238;13.438;2023-04-16T09:48:51;24.37;;;18.67;;
11473;SDS011;5793;52.238;13.438;2023-04-16T09:51:20;24.80;;;18.37;;
11473;SDS011;5793;52.238;13.438;2023-04-16T09:53:50;27.80;;;19.37;;
11473;SDS011;5793;52.238;13.438;2023-04-16T09:56:22;30.10;;;19.93;;
11473;SDS011;5793;52.238;13.438;2023-04-16T09:58:55;28.00;;;19.20;;
11473;SDS011;5793;52.238;13.438;2023-04-16T10:01:24;27.33;;;19.93;;
11473;SDS011;5793;52.238;13.438;2023-04-16T10:03:52;27.73;;;19.37;;
11473;SDS011;5793;52.238;13.438;2023-04-16T10:06:22;24.57;;;18.67;;
11473;SDS011;5793;52.238;13.438;2023-04-16T10:08:52;26.73;;;18.87;;
11473;SDS011;5793;52.238;13.438;2023-04-16T10:11:22;24.47;;;19.23;;
11473;SDS011;5793;52.238;13.438;2023-04-16T10:13:51;26.07;;;20.47;;
11473;SDS011;5793;52.238;13.438;2023-04-16T10:16:18;28.83;;;20.37;;
11473;SDS011;5793;52.238;13.438;2023-04-16T10:18:49;28.70;;;21.20;;
11473;SDS011;5793;52.238;13.438;2023-04-16T10:21:17;26.40;;;19.30;;
11473;SDS011;5793;52.238;13.438;2023-04-16T10:23:46;25.90;;;18.73;;
11473;SDS011;5793;52.238;13.438;2023-04-16T10:26:14;24.47;;;19.73;;
11473;SDS011;5793;52.238;13.438;2023-04-16T10:28:44;25.60;;;19.67;;
11473;SDS011;5793;52.238;13.438;2023-04-16T10:31:12;24.57;;;19.37;;
11473;SDS011;5793;52.238;13.438;2023-04-16T10:33:40;21.90;;;17.40;;
11473;SDS011;5793;52.238;13.438;2023-04-16T10:36:10;25.10;;;18.00;;
11473;SDS011;5793;52.238;13.438;2023-04-16T10:38:39;20.30;;;16.60;;
11473;SDS011;5793;52.238;13.438;2023-04-16T10:41:09;20.03;;;16.30;;
11473;SDS011;5793;52.238;13.438;2023-04-16T10:43:38;22.17;;;16.63;;
11473;SDS011;5793;52.238;13.438;2023-04-16T10:46:17;18.40;;;15.50;;
11473;SDS011;5793;52.238;13.438;2023-04-16T10:48:47;20.07;;;14.70;;
11473;SDS011;5793;52.238;13.438;2023-04-16T10:51:23;18.20;;;14.63;;
11473;SDS011;5793;52.238;13.438;2023-04-16T10:53:53;16.23;;;13.40;;
11473;SDS011;5793;52.238;13.438;2023-04-16T10:56:23;16.40;;;13.43;;
11473;SDS011;5793;52.238;13.438;2023-04-16T10:58:52;17.37;;;14.40;;
11473;SDS011;5793;52.238;13.438;2023-04-16T11:01:31;14.87;;;13.27;;
11473;SDS011;5793;52.238;13.438;2023-04-16T11:04:01;16.73;;;13.33;;
11473;SDS011;5793;52.238;13.438;2023-04-16T11:06:59;15.33;;;12.90;;
11473;SDS011;5793;52.238;13.438;2023-04-16T11:09:42;14.77;;;12.53;;
11473;SDS011;5793;52.238;13.438;2023-04-16T11:12:19;13.47;;;12.07;;
11473;SDS011;5793;52.238;13.438;2023-04-16T11:14:48;12.47;;;10.57;;
11473;SDS011;5793;52.238;13.438;2023-04-16T11:17:17;12.57;;;11.07;;
11473;SDS011;5793;52.238;13.438;2023-04-16T11:19:45;12.30;;;11.00;;
11473;SDS011;5793;52.238;13.438;2023-04-16T11:22:14;15.70;;;13.17;;
11473;SDS011;5793;52.238;13.438;2023-04-16T11:24:44;14.30;;;12.20;;
11473;SDS011;5793;52.238;13.438;2023-04-16T11:27:12;15.27;;;12.30;;
11473;SDS011;5793;52.238;13.438;2023-04-16T11:29:42;14.03;;;12.53;;
11473;SDS011;5793;52.238;13.438;2023-04-16T11:32:19;15.17;;;12.20;;
11473;SDS011;5793;52.238;13.438;2023-04-16T11:34:48;15.83;;;13.23;;
11473;SDS011;5793;52.238;13.438;2023-04-16T11:37:18;15.37;;;12.93;;
11473;SDS011;5793;52.238;13.438;2023-04-16T11:39:51;19.27;;;12.97;;
11473;SDS011;5793;52.238;13.438;2023-04-16T11:42:19;16.33;;;13.17;;
11473;SDS011;5793;52.238;13.438;2023-04-16T11:44:53;16.40;;;14.27;;
11473;SDS011;5793;52.238;13.438;2023-04-16T11:47:22;20.40;;;16.00;;
11473;SDS011;5793;52.238;13.438;2023-04-16T11:49:50;18.43;;;16.10;;
11473;SDS011;5793;52.238;13.438;2023-04-16T11:52:25;16.90;;;15.10;;
11473;SDS011;5793;52.238;13.438;2023-04-16T11:54:54;20.40;;;16.57;;
11473;SDS011;5793;52.238;13.438;2023-04-16T11:57:25;19.77;;;16.87;;
11473;SDS011;5793;52.238;13.438;2023-04-16T11:59:55;21.97;;;16.90;;
11473;SDS011;5793;52.238;13.438;2023-04-16T12:02:35;19.27;;;16.60;;
11473;SDS011;5793;52.238;13.438;2023-04-16T12:05:04;19.57;;;16.67;;
11473;SDS011;5793;52.238;13.438;2023-04-16T12:10:20;23.07;;;18.80;;
11473;SDS011;5793;52.238;13.438;2023-04-16T12:12:48;24.30;;;18.37;;
11473;SDS011;5793;52.238;13.438;2023-04-16T12:15:18;21.13;;;18.17;;
11473;SDS011;5793;52.238;13.438;2023-04-16T12:17:46;21.60;;;17.33;;
11473;SDS011;5793;52.238;13.438;2023-04-16T12:20:15;20.63;;;17.07;;
11473;SDS011;5793;52.238;13.438;2023-04-16T12:22:44;20.30;;;17.17;;
11473;SDS011;5793;52.238;13.438;2023-04-16T12:25:15;21.43;;;17.80;;
11473;SDS011;5793;52.238;13.438;2023-04-16T12:27:44;20.33;;;16.97;;
11473;SDS011;5793;52.238;13.438;2023-04-16T12:30:16;23.20;;;17.47;;
11473;SDS011;5793;52.238;13.438;2023-04-16T12:32:48;20.20;;;17.00;;
11473;SDS011;5793;52.238;13.438;2023-04-16T12:35:27;21.83;;;17.37;;
11473;SDS011;5793;52.238;13.438;2023-04-16T12:37:56;22.10;;;17.83;;
11473;SDS011;5793;52.238;13.438;2023-04-16T12:40:24;22.17;;;17.77;;
11473;SDS011;5793;52.238;13.438;2023-04-16T12:42:51;22.17;;;18.83;;
11473;SDS011;5793;52.238;13.438;2023-04-16T12:45:21;31.20;;;25.00;;
11473;SDS011;5793;52.238;13.438;2023-04-16T12:47:49;23.13;;;18.43;;
11473;SDS011;5793;52.238;13.438;2023-04-16T12:50:17;27.37;;;18.87;;
11473;SDS011;5793;52.238;13.438;2023-04-16T12:52:44;22.00;;;18.07;;
11473;SDS011;5793;52.238;13.438;2023-04-16T12:55:12;22.87;;;17.67;;
11473;SDS011;5793;52.238;13.438;2023-04-16T12:57:40;24.87;;;19.23;;
11473;SDS011;5793;52.238;13.438;2023-04-16T13:00:09;21.60;;;18.40;;
11473;SDS011;5793;52.238;13.438;2023-04-16T13:02:39;22.13;;;18.07;;
11473;SDS011;5793;52.238;13.438;2023-04-16T13:05:07;22.03;;;17.90;;
11473;SDS011;5793;52.238;13.438;2023-04-16T13:07:35;24.10;;;18.80;;
11473;SDS011;5793;52.238;13.438;2023-04-16T13:10:04;22.40;;;18.47;;
11473;SDS011;5793;52.238;13.438;2023-04-16T13:12:32;22.00;;;18.33;;
11473;SDS011;5793;52.238;13.438;2023-04-16T13:15:00;23.93;;;19.57;;
11473;SDS011;5793;52.238;13.438;2023-04-16T13:17:28;23.73;;;19.53;;
11473;SDS011;5793;52.238;13.438;2023-04-16T13:19:57;24.43;;;19.67;;
11473;SDS011;5793;52.238;13.438;2023-04-16T13:22:25;25.03;;;20.03;;
11473;SDS011;5793;52.238;13.438;2023-04-16T13:24:53;30.23;;;23.27;;
11473;SDS011;5793;52.238;13.438;2023-04-16T13:27:22;27.20;;;21.70;;
11473;SDS011;5793;52.238;13.438;2023-04-16T13:29:50;25.67;;;20.57;;
11473;SDS011;5793;52.238;13.438;2023-04-16T13:32:18;28.23;;;21.43;;
11473;SDS011;5793;52.238;13.438;2023-04-16T13:34:46;25.33;;;20.40;;
11473;SDS011;5793;52.238;13.438;2023-04-16T13:37:15;23.20;;;19.97;;
11473;SDS011;5793;52.238;13.438;2023-04-16T13:39:42;26.20;;;19.97;;
11473;SDS011;5793;52.238;13.438;2023-04-16T13:42:10;25.03;;;20.90;;
11473;SDS011;5793;52.238;13.438;2023-04-16T13:44:38;25.10;;;20.07;;
11473;SDS011;5793;52.238;13.438;2023-04-16T13:47:06;26.13;;;20.70;;
11473;SDS011;5793;52.238;13.438;2023-04-16T13:49:34;27.60;;;23.47;;
11473;SDS011;5793;52.238;13.438;2023-04-16T13:52:02;25.53;;;22.53;;
11473;SDS011;5793;52.238;13.438;2023-04-16T13:54:31;23.97;;;21.03;;
11473;SDS011;5793;52.238;13.438;2023-04-16T13:56:59;23.67;;;20.67;;
11473;SDS011;5793;52.238;13.438;2023-04-16T13:59:27;24.90;;;22.07;;
11473;SDS011;5793;52.238;13.438;2023-04-16T14:01:55;26.43;;;21.00;;
11473;SDS011;5793;52.238;13.438;2023-04-16T14:04:23;23.10;;;19.57;;
11473;SDS011;5793;52.238;13.438;2023-04-16T14:06:51;22.10;;;18.73;;
11473;SDS011;5793;52.238;13.438;2023-04-16T14:09:19;23.60;;;21.03;;
11473;SDS011;5793;52.238;13.438;2023-04-16T14:11:49;23.10;;;19.37;;
11473;SDS011;5793;52.238;13.438;2023-04-16T14:14:17;21.80;;;19.07;;
11473;SDS011;5793;52.238;13.438;2023-04-16T14:16:45;24.30;;;19.53;;
11473;SDS011;5793;52.238;13.438;2023-04-16T14:19:13;21.70;;;19.23;;
11473;SDS011;5793;52.238;13.438;2023-04-16T14:21:41;26.10;;;18.97;;
11473;SDS011;5793;52.238;13.438;2023-04-16T14:24:09;23.07;;;19.77;;
11473;SDS011;5793;52.238;13.438;2023-04-16T14:26:37;24.47;;;20.60;;
11473;SDS011;5793;52.238;13.438;2023-04-16T14:29:06;24.27;;;19.73;;
11473;SDS011;5793;52.238;13.438;2023-04-16T14:31:35;25.87;;;21.37;;
11473;SDS011;5793;52.238;13.438;2023-04-16T14:34:03;23.07;;;19.50;;